createdAt,value
2022-11-29T18:51:21.457Z,12.40
2022-11-29T18:52:21.389Z,21.50
2022-11-29T18:53:21.332Z,24.80
2022-11-29T18:54:21.279Z,27.80
2022-11-29T18:55:21.224Z,29.20
2022-11-29T18:56:21.179Z,29.90
2022-11-29T18:57:21.124Z,29.10
2022-11-29T18:58:21.074Z,31.10
2022-11-29T19:00:20.975Z,29.80
2022-11-29T19:01:20.985Z,29.60
2022-11-29T19:02:20.959Z,29.80
2022-11-29T19:03:20.831Z,29.90
2022-11-29T19:04:20.788Z,29.70
2022-11-29T19:05:20.738Z,29.50
2022-11-29T19:06:20.685Z,29.80
2022-11-29T19:07:20.680Z,29.90
2022-11-29T19:08:20.591Z,29.20
2022-11-29T19:09:20.546Z,29.10
2022-11-29T19:10:20.498Z,30.00
2022-11-29T19:11:20.451Z,29.30
2022-11-29T19:12:20.409Z,31.30
2022-11-29T19:13:20.364Z,29.90
2022-11-29T19:14:20.308Z,30.90
2022-11-29T19:15:20.265Z,30.30
2022-11-29T19:16:20.260Z,33.10
2022-11-29T19:17:20.189Z,30.40
2022-11-29T19:18:20.130Z,33.30
2022-11-29T19:19:20.283Z,33.40
2022-11-29T19:20:20.027Z,33.50
2022-11-29T19:21:19.987Z,33.30
2022-11-29T19:22:19.936Z,33.40
2022-11-29T19:23:19.922Z,32.80
2022-11-29T19:24:19.846Z,31.90
2022-11-29T19:25:19.812Z,32.10
2022-11-29T19:26:19.759Z,31.40
2022-11-29T19:27:19.702Z,31.60
2022-11-29T19:28:19.664Z,31.60
2022-11-29T19:29:19.627Z,32.60
2022-11-29T19:30:19.563Z,32.50
2022-11-29T19:31:19.595Z,32.40
2022-11-29T19:32:19.474Z,31.80
2022-11-29T19:33:19.447Z,32.30
2022-11-29T19:34:19.375Z,30.70
2022-11-29T19:35:19.339Z,31.50
2022-11-29T19:36:19.293Z,32.10
2022-11-29T19:37:19.256Z,31.20
2022-11-29T19:38:19.200Z,31.30
2022-11-29T19:39:19.167Z,32.60
2022-11-29T19:40:19.114Z,34.30
2022-11-29T19:41:19.059Z,35.50
2022-11-29T19:42:19.014Z,36.60
2022-11-29T19:43:18.985Z,38.40
2022-11-29T19:44:18.935Z,37.80
2022-11-29T19:45:18.921Z,36.60
2022-11-29T19:46:19.003Z,37.30
2022-11-29T19:47:18.793Z,35.70
2022-11-29T19:48:18.737Z,35.60
2022-11-29T19:49:18.695Z,36.60
2022-11-29T19:50:18.651Z,35.80
2022-11-29T19:51:18.619Z,35.30
2022-11-29T19:52:18.563Z,36.20
2022-11-29T19:53:18.523Z,35.30
2022-11-29T19:54:18.468Z,34.20
2022-11-29T19:55:18.468Z,31.90
2022-11-29T19:56:18.379Z,33.50
2022-11-29T19:57:18.343Z,34.80
2022-11-29T19:58:18.288Z,34.80
2022-11-29T19:59:18.247Z,33.30
2022-11-29T20:00:18.187Z,34.20
2022-11-29T20:01:18.202Z,34.90
2022-11-29T20:02:18.220Z,34.20
2022-11-29T20:03:18.057Z,34.30
2022-11-29T20:04:18.015Z,34.80
2022-11-29T20:05:17.977Z,34.20
2022-11-29T20:06:17.917Z,34.30
2022-11-29T20:07:17.924Z,35.70
2022-11-29T20:08:21.269Z,35.60
2022-11-29T20:09:17.800Z,34.80
2022-11-29T20:10:17.732Z,36.00
2022-11-29T20:12:17.676Z,35.30
2022-11-29T20:13:17.621Z,34.70
2022-11-29T20:14:17.562Z,35.50
2022-11-29T20:15:17.516Z,37.10
2022-11-29T20:16:17.509Z,35.80
2022-11-29T20:17:17.420Z,35.50
2022-11-29T20:18:17.369Z,35.30
2022-11-29T20:19:17.354Z,35.50
2022-11-29T20:21:17.230Z,34.30
2022-11-29T20:22:17.200Z,33.60
2022-11-29T20:23:17.157Z,34.40
2022-11-29T20:24:17.111Z,33.70
2022-11-29T20:25:17.058Z,34.70
2022-11-29T20:26:17.031Z,33.70
2022-11-29T20:27:16.969Z,34.70
2022-11-29T20:28:16.976Z,34.00
2022-11-29T20:29:16.890Z,33.40
2022-11-29T20:30:16.840Z,35.70
2022-11-29T20:31:16.880Z,34.20
2022-11-29T20:32:16.728Z,35.30
2022-11-29T20:34:16.644Z,34.30
2022-11-29T20:35:16.603Z,35.20
2022-11-29T20:36:16.576Z,36.30
2022-11-29T20:37:16.497Z,35.60
2022-11-29T20:38:16.455Z,36.20
2022-11-29T20:39:16.410Z,36.10
2022-11-29T20:40:16.365Z,36.00
2022-11-29T20:41:16.325Z,36.50
2022-11-29T20:42:16.281Z,35.80
2022-11-29T20:43:16.233Z,38.00
2022-11-29T20:44:16.405Z,36.70
2022-11-29T20:45:16.154Z,38.80
2022-11-29T20:46:16.167Z,35.80
2022-11-29T20:47:16.061Z,34.80
2022-11-29T20:48:16.015Z,37.00
2022-11-29T20:49:15.955Z,36.60
2022-11-29T20:50:19.428Z,35.90
2022-11-29T20:51:15.864Z,36.40
2022-11-29T20:52:15.864Z,35.10
2022-11-29T20:53:15.815Z,36.30
2022-11-29T20:54:15.737Z,37.70
2022-11-29T20:55:15.684Z,36.90
2022-11-29T20:57:15.586Z,38.90
2022-11-29T20:58:15.546Z,36.90
2022-11-29T20:59:15.502Z,36.70
2022-11-29T21:00:15.484Z,37.00
2022-11-29T21:01:15.502Z,38.30
2022-11-29T21:02:15.364Z,36.00
2022-11-29T21:03:15.431Z,37.00
2022-11-29T21:04:20.163Z,35.70
2022-11-29T21:05:15.223Z,36.10
2022-11-29T21:06:15.203Z,36.50
2022-11-29T21:07:15.128Z,36.20
2022-11-29T21:08:15.091Z,35.50
2022-11-29T21:09:15.045Z,36.80
2022-11-29T21:10:15.088Z,35.70
2022-11-29T21:11:14.942Z,37.10
2022-11-29T21:12:14.943Z,34.60
2022-11-29T21:13:14.860Z,35.60
2022-11-29T21:14:14.813Z,36.50
2022-11-29T21:15:14.765Z,37.10
2022-11-29T21:16:14.833Z,35.10
2022-11-29T21:17:14.702Z,36.80
2022-11-29T21:18:14.635Z,34.90
2022-11-29T21:19:14.578Z,34.50
2022-11-29T21:20:14.530Z,34.50
2022-11-29T21:21:14.487Z,36.00
2022-11-29T21:22:14.449Z,36.30
2022-11-29T21:23:14.405Z,35.40
2022-11-29T21:24:14.348Z,36.30
2022-11-29T21:25:14.313Z,36.50
2022-11-29T21:26:14.257Z,36.10
2022-11-29T21:27:14.212Z,35.10
2022-11-29T21:28:14.167Z,35.30
2022-11-29T21:29:14.122Z,35.70
2022-11-29T21:30:14.074Z,33.80
2022-11-29T21:31:14.048Z,34.20
2022-11-29T21:32:19.116Z,34.40
2022-11-29T21:33:13.939Z,34.30
2022-11-29T21:34:13.909Z,33.50
2022-11-29T21:35:13.856Z,33.00
2022-11-29T21:36:13.799Z,32.20
2022-11-29T21:37:13.763Z,33.30
2022-11-29T21:38:13.708Z,32.70
2022-11-29T21:39:13.664Z,33.20
2022-11-29T21:40:13.616Z,34.20
2022-11-29T21:41:13.584Z,33.40
2022-11-29T21:42:13.727Z,32.80
2022-11-29T21:43:13.492Z,32.20
2022-11-29T21:44:13.449Z,34.30
2022-11-29T21:45:15.677Z,33.40
2022-11-29T21:46:13.413Z,33.60
2022-11-29T21:47:13.296Z,34.00
2022-11-29T21:48:13.266Z,33.40
2022-11-29T21:49:13.206Z,32.00
2022-11-29T21:50:13.156Z,33.00
2022-11-29T21:51:13.113Z,32.90
2022-11-29T21:52:17.691Z,34.00
2022-11-29T21:53:13.027Z,33.90
2022-11-29T21:54:12.978Z,33.70
2022-11-29T21:55:12.932Z,33.00
2022-11-29T21:56:12.892Z,33.60
2022-11-29T21:57:12.841Z,34.30
2022-11-29T21:58:12.796Z,33.60
2022-11-29T21:59:12.750Z,33.70
2022-11-29T22:00:12.701Z,33.40
2022-11-29T22:01:12.658Z,34.40
2022-11-29T22:02:12.762Z,35.50
2022-11-29T22:03:12.568Z,34.20
2022-11-29T22:04:12.542Z,33.00
2022-11-29T22:05:12.475Z,35.00
2022-11-29T22:06:12.430Z,33.40
2022-11-29T22:07:12.383Z,34.70
2022-11-29T22:08:12.344Z,34.70
2022-11-29T22:09:12.298Z,35.80
2022-11-29T22:10:13.608Z,34.30
2022-11-29T22:11:12.209Z,35.10
2022-11-29T22:12:32.476Z,34.60
2022-11-29T22:13:12.111Z,34.70
2022-11-29T22:14:12.069Z,36.00
2022-11-29T22:15:12.017Z,34.80
2022-11-29T22:16:12.054Z,34.70
2022-11-29T22:17:11.927Z,34.70
2022-11-29T22:18:11.883Z,33.90
2022-11-29T22:19:11.838Z,34.90
2022-11-29T22:20:11.807Z,34.80
2022-11-29T22:21:11.745Z,34.60
2022-11-29T22:22:11.698Z,34.60
2022-11-29T22:23:11.653Z,34.90
2022-11-29T22:24:11.606Z,33.90
2022-11-29T22:25:11.564Z,33.30
2022-11-29T22:26:11.514Z,34.60
2022-11-29T22:27:11.473Z,33.30
2022-11-29T22:28:11.424Z,31.40
2022-11-29T22:29:11.383Z,30.50
2022-11-29T22:30:11.334Z,31.40
2022-11-29T22:31:11.374Z,33.60
2022-11-29T22:32:11.239Z,33.10
2022-11-29T22:33:13.455Z,32.50
2022-11-29T22:34:11.151Z,31.90
2022-11-29T22:35:11.106Z,32.30
2022-11-29T22:36:11.075Z,32.00
2022-11-29T22:37:11.013Z,34.00
2022-11-29T22:38:10.967Z,31.90
2022-11-29T22:39:10.927Z,31.80
2022-11-29T22:40:10.874Z,33.00
2022-11-29T22:41:10.833Z,31.50
2022-11-29T22:42:10.787Z,31.20
2022-11-29T22:43:10.742Z,32.20
2022-11-29T22:44:10.696Z,32.50
2022-11-29T22:45:10.653Z,32.60
2022-11-29T22:46:10.607Z,32.10
2022-11-29T22:47:10.759Z,32.20
2022-11-29T22:48:10.576Z,31.10
2022-11-29T22:49:10.471Z,32.40
2022-11-29T22:50:10.424Z,32.50
2022-11-29T22:51:10.376Z,33.70
2022-11-29T22:52:10.351Z,32.40
2022-11-29T22:53:10.282Z,34.20
2022-11-29T22:54:10.236Z,32.30
2022-11-29T22:55:10.196Z,33.40
2022-11-29T22:56:10.147Z,33.40
2022-11-29T22:57:10.101Z,33.50
2022-11-29T22:58:10.056Z,34.00
2022-11-29T22:59:10.008Z,32.40
2022-11-29T23:00:09.963Z,33.80
2022-11-29T23:01:09.991Z,33.30
2022-11-29T23:02:09.963Z,33.40
2022-11-29T23:03:09.831Z,32.70
2022-11-29T23:04:09.782Z,33.30
2022-11-29T23:05:09.735Z,33.30
2022-11-29T23:06:09.690Z,32.30
2022-11-29T23:07:09.649Z,31.70
2022-11-29T23:08:09.620Z,34.00
2022-11-29T23:09:09.556Z,33.60
2022-11-29T23:10:09.507Z,32.50
2022-11-29T23:11:09.459Z,32.50
2022-11-29T23:12:09.419Z,33.00
2022-11-29T23:13:09.373Z,33.00
2022-11-29T23:14:09.328Z,32.80
